createdAt,value
2023-04-25T00:02:01.453Z,100.00
2023-04-25T00:04:31.348Z,100.00
2023-04-25T00:06:59.836Z,100.00
2023-04-25T00:09:29.155Z,100.00
2023-04-25T00:11:58.974Z,100.00
2023-04-25T00:14:27.055Z,100.00
2023-04-25T00:16:55.434Z,100.00
2023-04-25T00:19:23.669Z,100.00
2023-04-25T00:21:51.723Z,100.00
2023-04-25T00:24:19.735Z,100.00
2023-04-25T00:26:48.772Z,100.00
2023-04-25T00:29:18.662Z,100.00
2023-04-25T00:31:46.830Z,100.00
2023-04-25T00:34:15.127Z,100.00
2023-04-25T00:36:43.337Z,100.00
2023-04-25T00:39:11.648Z,100.00
2023-04-25T00:41:39.771Z,100.00
2023-04-25T00:44:08.290Z,100.00
2023-04-25T00:46:38.434Z,100.00
2023-04-25T00:49:06.491Z,100.00
2023-04-25T00:51:35.232Z,100.00
2023-04-25T00:54:03.848Z,100.00
2023-04-25T00:56:32.239Z,100.00
2023-04-25T00:59:00.540Z,100.00
2023-04-25T01:01:29.327Z,100.00
2023-04-25T01:04:00.902Z,100.00
2023-04-25T01:06:29.916Z,100.00
2023-04-25T01:08:58.782Z,100.00
2023-04-25T01:11:26.831Z,100.00
2023-04-25T01:13:54.929Z,100.00
2023-04-25T01:16:25.030Z,100.00
2023-04-25T01:18:53.816Z,100.00
2023-04-25T01:21:23.463Z,100.00
2023-04-25T01:23:52.407Z,100.00
2023-04-25T01:26:22.430Z,100.00
2023-04-25T01:28:51.339Z,100.00
2023-04-25T01:31:20.661Z,100.00
2023-04-25T01:33:50.211Z,100.00
2023-04-25T01:36:20.004Z,100.00
2023-04-25T01:38:49.889Z,100.00
2023-04-25T01:41:19.079Z,100.00
2023-04-25T01:43:47.346Z,100.00
2023-04-25T01:46:15.996Z,100.00
2023-04-25T01:48:44.092Z,100.00
2023-04-25T01:51:12.720Z,100.00
2023-04-25T01:53:40.886Z,100.00
2023-04-25T01:56:11.062Z,100.00
2023-04-25T01:58:39.143Z,100.00
2023-04-25T02:01:07.348Z,100.00
2023-04-25T02:03:36.864Z,100.00
2023-04-25T02:06:05.349Z,100.00
2023-04-25T02:08:33.428Z,100.00
2023-04-25T02:11:01.455Z,100.00
2023-04-25T02:13:31.172Z,100.00
2023-04-25T02:15:59.633Z,100.00
2023-04-25T02:18:28.512Z,100.00
2023-04-25T02:20:56.695Z,100.00
2023-04-25T02:23:24.898Z,100.00
2023-04-25T02:25:54.166Z,100.00
2023-04-25T02:28:22.379Z,100.00
2023-04-25T02:30:52.310Z,100.00
2023-04-25T02:33:22.086Z,100.00
2023-04-25T02:35:50.473Z,100.00
2023-04-25T02:38:18.647Z,100.00
2023-04-25T02:40:46.959Z,100.00
2023-04-25T02:43:15.129Z,100.00
2023-04-25T02:45:43.640Z,100.00
2023-04-25T02:48:13.143Z,100.00
2023-04-25T02:50:41.366Z,100.00
2023-04-25T02:53:09.537Z,100.00
2023-04-25T02:55:37.665Z,100.00
2023-04-25T02:58:06.104Z,100.00
2023-04-25T03:00:34.461Z,100.00
2023-04-25T03:03:02.932Z,100.00
2023-04-25T03:05:32.612Z,100.00
2023-04-25T03:08:00.973Z,100.00
2023-04-25T03:10:29.030Z,100.00
2023-04-25T03:12:57.575Z,100.00
2023-04-25T03:15:25.624Z,100.00
2023-04-25T03:17:53.738Z,100.00
2023-04-25T03:20:22.200Z,100.00
2023-04-25T03:22:53.627Z,100.00
2023-04-25T03:25:22.056Z,100.00
2023-04-25T03:27:50.146Z,100.00
2023-04-25T03:30:18.602Z,100.00
2023-04-25T03:32:47.018Z,100.00
2023-04-25T03:35:15.497Z,100.00
2023-04-25T03:37:46.701Z,100.00
2023-04-25T03:40:16.295Z,100.00
2023-04-25T03:42:45.127Z,100.00
2023-04-25T03:45:13.422Z,100.00
2023-04-25T03:47:42.801Z,100.00
2023-04-25T03:50:11.659Z,100.00
2023-04-25T03:52:39.928Z,100.00
2023-04-25T03:55:08.909Z,100.00
2023-04-25T03:57:39.025Z,100.00
2023-04-25T04:00:09.017Z,100.00
2023-04-25T04:02:38.708Z,100.00
2023-04-25T04:05:08.292Z,100.00
2023-04-25T04:07:41.254Z,100.00
2023-04-25T04:10:10.284Z,100.00
2023-04-25T04:12:39.819Z,100.00
2023-04-25T04:15:08.856Z,100.00
2023-04-25T04:17:36.972Z,100.00
2023-04-25T04:20:07.119Z,100.00
2023-04-25T04:22:35.183Z,100.00
2023-04-25T04:25:03.652Z,100.00
2023-04-25T04:27:31.774Z,100.00
2023-04-25T04:30:01.560Z,100.00
2023-04-25T04:32:31.586Z,100.00
2023-04-25T04:35:00.897Z,100.00
2023-04-25T04:37:29.071Z,100.00
2023-04-25T04:39:57.715Z,100.00
2023-04-25T04:42:26.612Z,100.00
2023-04-25T04:44:56.198Z,100.00
2023-04-25T04:47:26.982Z,100.00
2023-04-25T04:49:55.092Z,100.00
2023-04-25T04:52:23.192Z,100.00
2023-04-25T04:54:51.337Z,100.00
2023-04-25T04:57:19.567Z,100.00
2023-04-25T04:59:47.772Z,100.00
2023-04-25T05:02:16.110Z,100.00
2023-04-25T05:04:46.273Z,100.00
2023-04-25T05:07:14.893Z,100.00
2023-04-25T05:09:43.236Z,100.00
2023-04-25T05:12:11.676Z,100.00
2023-04-25T05:14:39.710Z,100.00
2023-04-25T05:17:09.671Z,100.00
2023-04-25T05:19:38.029Z,100.00
2023-04-25T05:22:07.513Z,100.00
2023-04-25T05:24:35.951Z,100.00
2023-04-25T05:27:04.020Z,100.00
2023-04-25T05:29:32.224Z,100.00
2023-04-25T05:32:00.431Z,100.00
2023-04-25T05:34:28.536Z,100.00
2023-04-25T05:36:56.747Z,100.00
2023-04-25T05:39:26.390Z,100.00
2023-04-25T05:41:54.441Z,100.00
2023-04-25T05:44:22.543Z,100.00
2023-04-25T05:46:50.962Z,100.00
2023-04-25T05:49:19.763Z,100.00
2023-04-25T05:51:47.948Z,100.00
2023-04-25T05:54:16.378Z,100.00
2023-04-25T05:56:45.997Z,100.00
2023-04-25T05:59:14.170Z,100.00
2023-04-25T06:01:42.631Z,100.00
2023-04-25T06:04:11.049Z,100.00
2023-04-25T06:06:39.331Z,100.00
2023-04-25T06:09:07.560Z,100.00
2023-04-25T06:11:36.046Z,100.00
2023-04-25T06:14:05.925Z,100.00
2023-04-25T06:16:34.218Z,100.00
2023-04-25T06:19:02.558Z,100.00
2023-04-25T06:21:30.561Z,100.00
2023-04-25T06:23:58.651Z,100.00
2023-04-25T06:26:26.754Z,100.00
2023-04-25T06:28:55.161Z,100.00
2023-04-25T06:31:24.658Z,100.00
2023-04-25T06:33:55.811Z,100.00
2023-04-25T06:36:26.236Z,100.00
2023-04-25T06:38:54.634Z,100.00
2023-04-25T06:41:23.172Z,100.00
2023-04-25T06:43:51.213Z,100.00
2023-04-25T06:46:19.328Z,100.00
2023-04-25T06:48:49.471Z,100.00
2023-04-25T06:51:18.062Z,100.00
2023-04-25T06:53:46.272Z,100.00
2023-04-25T06:56:14.292Z,100.00
2023-04-25T06:58:42.338Z,100.00
2023-04-25T07:01:10.383Z,100.00
2023-04-25T07:03:39.592Z,100.00
2023-04-25T07:06:09.539Z,100.00
2023-04-25T07:08:37.667Z,100.00
2023-04-25T07:11:06.017Z,100.00
2023-04-25T07:13:34.357Z,100.00
2023-04-25T07:16:02.660Z,100.00
2023-04-25T07:18:31.020Z,100.00
2023-04-25T07:20:59.295Z,100.00
2023-04-25T07:23:29.021Z,100.00
2023-04-25T07:25:57.051Z,100.00
2023-04-25T07:28:25.497Z,100.00
2023-04-25T07:30:53.890Z,100.00
2023-04-25T07:33:23.034Z,100.00
2023-04-25T07:35:51.247Z,100.00
2023-04-25T07:38:19.284Z,100.00
2023-04-25T07:40:49.728Z,100.00
2023-04-25T07:43:18.066Z,100.00
2023-04-25T07:45:46.270Z,100.00
2023-04-25T07:48:18.750Z,100.00
2023-04-25T07:50:46.904Z,100.00
2023-04-25T07:53:15.680Z,100.00
2023-04-25T07:55:43.801Z,100.00
2023-04-25T07:58:14.994Z,100.00
2023-04-25T08:00:43.436Z,100.00
2023-04-25T08:03:12.884Z,100.00
2023-04-25T08:05:41.242Z,100.00
2023-04-25T08:08:09.568Z,100.00
2023-04-25T08:10:37.922Z,100.00
2023-04-25T08:13:06.164Z,100.00
2023-04-25T08:15:36.003Z,100.00
2023-04-25T08:18:06.077Z,100.00
2023-04-25T08:20:34.583Z,100.00
2023-04-25T08:23:02.964Z,100.00
2023-04-25T08:25:31.091Z,100.00
2023-04-25T08:28:00.660Z,100.00
2023-04-25T08:30:29.327Z,100.00
2023-04-25T08:32:58.990Z,100.00
2023-04-25T08:35:27.274Z,100.00
2023-04-25T08:37:55.465Z,100.00
2023-04-25T08:40:29.859Z,100.00
2023-04-25T08:42:59.959Z,100.00
2023-04-25T08:45:30.473Z,100.00
2023-04-25T08:48:01.702Z,100.00
2023-04-25T08:50:31.429Z,100.00
2023-04-25T08:53:03.913Z,100.00
2023-04-25T08:55:33.257Z,100.00
2023-04-25T08:58:02.448Z,100.00
2023-04-25T09:00:31.098Z,100.00
2023-04-25T09:03:01.918Z,100.00
2023-04-25T09:05:31.199Z,100.00
2023-04-25T09:07:59.521Z,100.00
2023-04-25T09:10:27.847Z,100.00
2023-04-25T09:13:09.897Z,100.00
2023-04-25T09:15:49.917Z,100.00
2023-04-25T09:18:30.629Z,100.00
2023-04-25T09:21:13.831Z,100.00
2023-04-25T09:23:44.450Z,100.00
2023-04-25T09:26:12.727Z,100.00
2023-04-25T09:28:42.094Z,100.00
2023-04-25T09:31:12.647Z,100.00
2023-04-25T09:33:43.209Z,100.00
2023-04-25T09:36:13.260Z,100.00
2023-04-25T09:38:44.154Z,100.00
2023-04-25T09:41:13.073Z,100.00
2023-04-25T09:43:41.894Z,100.00
2023-04-25T09:46:12.534Z,100.00
2023-04-25T09:48:42.132Z,100.00
2023-04-25T09:51:12.039Z,100.00
2023-04-25T09:53:44.750Z,93.40
2023-04-25T09:56:14.899Z,88.90
2023-04-25T09:58:43.739Z,87.57
2023-04-25T10:01:15.956Z,89.14
2023-04-25T10:03:47.927Z,88.42
2023-04-25T10:06:22.608Z,87.79
2023-04-25T10:08:53.357Z,85.60
2023-04-25T10:11:21.800Z,85.36
2023-04-25T10:13:50.656Z,85.86
2023-04-25T10:16:19.933Z,83.80
2023-04-25T10:18:49.996Z,86.84
2023-04-25T10:21:18.711Z,80.39
2023-04-25T10:23:48.196Z,78.23
2023-04-25T10:26:17.938Z,80.84
2023-04-25T10:28:59.464Z,84.00
2023-04-25T10:31:28.378Z,89.24
2023-04-25T10:34:01.669Z,89.23
2023-04-25T10:36:34.307Z,89.46
2023-04-25T10:39:08.456Z,88.88
2023-04-25T10:41:49.312Z,89.66
2023-04-25T10:44:18.001Z,90.84
2023-04-25T10:46:48.412Z,88.20
2023-04-25T10:52:17.358Z,87.95
2023-04-25T10:54:49.603Z,82.55
2023-04-25T10:57:40.148Z,80.82
2023-04-25T11:00:12.148Z,77.71
2023-04-25T11:02:44.170Z,80.26
2023-04-25T11:05:12.918Z,79.25
2023-04-25T11:07:59.840Z,82.24
2023-04-25T11:10:36.825Z,80.17
2023-04-25T11:13:05.394Z,76.72
2023-04-25T11:15:33.626Z,79.14
2023-04-25T11:18:10.493Z,79.86
2023-04-25T11:20:38.644Z,84.95
2023-04-25T11:23:08.334Z,82.22
2023-04-25T11:25:38.521Z,82.61
2023-04-25T11:28:07.212Z,84.73
2023-04-25T11:30:35.258Z,79.47
2023-04-25T11:33:04.498Z,78.36
2023-04-25T11:35:34.725Z,82.80
2023-04-25T11:38:04.118Z,85.90
2023-04-25T11:40:34.689Z,78.73
2023-04-25T11:43:03.368Z,75.73
2023-04-25T11:45:32.342Z,76.67
2023-04-25T11:48:00.564Z,77.62
2023-04-25T11:50:30.777Z,78.44
2023-04-25T11:52:59.559Z,84.05
2023-04-25T11:55:27.936Z,79.47
2023-04-25T11:57:57.543Z,81.21
2023-04-25T12:00:27.054Z,84.17
2023-04-25T12:02:57.021Z,84.76
2023-04-25T12:05:32.896Z,80.93
2023-04-25T12:08:14.137Z,78.62
2023-04-25T12:10:44.182Z,74.72
2023-04-25T12:13:29.262Z,75.25
2023-04-25T12:15:58.027Z,78.05
2023-04-25T12:18:28.806Z,77.21
2023-04-25T12:20:57.897Z,78.73
2023-04-25T12:23:30.033Z,79.56
2023-04-25T12:25:58.878Z,83.33
2023-04-25T12:28:29.464Z,82.52
2023-04-25T12:30:59.672Z,79.59
2023-04-25T12:33:29.113Z,82.31
2023-04-25T12:35:58.658Z,80.79
2023-04-25T12:38:28.154Z,81.26
2023-04-25T12:40:56.928Z,76.89
2023-04-25T12:43:25.746Z,74.12
2023-04-25T12:45:56.997Z,74.69
2023-04-25T12:48:26.521Z,69.10
2023-04-25T12:50:55.108Z,71.18
2023-04-25T12:53:25.681Z,67.30
2023-04-25T12:58:27.540Z,60.36
2023-04-25T13:00:57.289Z,65.67
2023-04-25T13:03:25.905Z,66.73
2023-04-25T13:05:55.434Z,64.44
2023-04-25T13:08:23.761Z,71.61
2023-04-25T13:10:52.042Z,70.28
2023-04-25T13:13:20.256Z,70.53
2023-04-25T13:15:48.808Z,71.07
2023-04-25T13:18:18.801Z,73.09
2023-04-25T13:20:47.338Z,73.82
2023-04-25T13:23:15.744Z,71.48
2023-04-25T13:25:43.893Z,72.19
2023-04-25T13:28:12.152Z,72.66
2023-04-25T13:30:40.851Z,74.79
2023-04-25T13:33:10.841Z,70.97
2023-04-25T13:35:41.192Z,75.66
2023-04-25T13:38:10.123Z,78.48
2023-04-25T13:40:38.531Z,75.52
2023-04-25T13:43:07.640Z,73.91
2023-04-25T13:45:37.179Z,76.79
2023-04-25T13:48:05.595Z,77.95
2023-04-25T13:50:33.853Z,73.83
2023-04-25T13:53:03.835Z,74.20
2023-04-25T13:55:32.554Z,72.46
2023-04-25T13:58:08.155Z,71.94
2023-04-25T14:00:39.081Z,71.42
2023-04-25T14:03:09.270Z,70.75
2023-04-25T14:05:40.347Z,70.60
2023-04-25T14:08:11.775Z,70.13
2023-04-25T14:10:40.099Z,70.99
2023-04-25T14:13:10.209Z,70.86
2023-04-25T14:15:39.751Z,70.32
2023-04-25T14:18:08.812Z,68.74
2023-04-25T14:20:37.384Z,66.48
2023-04-25T14:23:06.073Z,70.35
2023-04-25T14:25:37.027Z,76.62
2023-04-25T14:28:05.262Z,78.45
2023-04-25T14:30:33.641Z,79.16
2023-04-25T14:33:02.262Z,74.34
2023-04-25T14:35:30.722Z,75.72
2023-04-25T14:37:59.188Z,71.69
2023-04-25T14:40:28.802Z,69.29
2023-04-25T14:42:58.897Z,67.41
2023-04-25T14:45:27.408Z,68.64
2023-04-25T14:47:55.729Z,72.00
2023-04-25T14:50:24.013Z,68.53
2023-04-25T14:52:54.001Z,67.21
2023-04-25T14:55:22.368Z,65.14
2023-04-25T14:57:50.755Z,65.67
2023-04-25T15:00:21.870Z,68.31
2023-04-25T15:02:50.728Z,65.72
2023-04-25T15:05:19.842Z,62.06
2023-04-25T15:07:48.932Z,60.20
2023-04-25T15:10:17.808Z,57.10
2023-04-25T15:12:47.705Z,59.96
2023-04-25T15:15:26.027Z,58.41
2023-04-25T15:17:59.286Z,58.56
2023-04-25T15:20:28.777Z,57.67
2023-04-25T15:22:57.230Z,58.66
2023-04-25T15:25:26.094Z,63.64
2023-04-25T15:27:55.938Z,62.36
2023-04-25T15:30:24.188Z,67.67
2023-04-25T15:32:53.732Z,68.25
2023-04-25T15:35:23.643Z,69.29
2023-04-25T15:37:52.673Z,72.48
2023-04-25T15:40:20.848Z,70.82
2023-04-25T15:42:51.843Z,70.11
2023-04-25T15:45:21.736Z,70.43
2023-04-25T15:47:51.652Z,70.68
2023-04-25T15:50:20.304Z,71.88
2023-04-25T15:52:50.867Z,67.97
2023-04-25T15:55:21.776Z,69.85
2023-04-25T15:57:51.377Z,69.58
2023-04-25T16:00:22.289Z,69.41
2023-04-25T16:02:50.959Z,66.21
2023-04-25T16:05:19.722Z,65.18
2023-04-25T16:07:50.247Z,64.49
2023-04-25T16:10:21.965Z,65.22
2023-04-25T16:12:50.974Z,61.55
2023-04-25T16:15:19.350Z,59.05
2023-04-25T16:17:47.582Z,61.12
2023-04-25T16:20:17.636Z,60.18
2023-04-25T16:22:46.090Z,59.79
2023-04-25T16:25:16.126Z,61.81
2023-04-25T16:27:44.549Z,62.94
2023-04-25T16:30:13.178Z,60.28
2023-04-25T16:32:44.830Z,61.47
2023-04-25T16:35:15.384Z,58.60
2023-04-25T16:37:43.879Z,56.75
2023-04-25T16:40:12.913Z,57.01
2023-04-25T16:42:42.642Z,58.60
2023-04-25T16:45:11.796Z,58.00
2023-04-25T16:47:39.930Z,59.53
2023-04-25T16:50:09.144Z,58.21
2023-04-25T16:52:37.329Z,58.11
2023-04-25T16:55:06.616Z,59.28
2023-04-25T16:57:36.458Z,58.20
2023-04-25T17:00:09.930Z,60.84
2023-04-25T17:02:38.498Z,63.10
2023-04-25T17:05:07.788Z,65.70
2023-04-25T17:07:36.343Z,67.91
2023-04-25T17:10:04.878Z,68.79
2023-04-25T17:12:33.703Z,65.30
2023-04-25T17:15:01.885Z,63.99
2023-04-25T17:17:31.660Z,62.85
2023-04-25T17:19:59.688Z,61.17
2023-04-25T17:22:27.894Z,60.74
2023-04-25T17:24:56.050Z,60.52
2023-04-25T17:27:24.120Z,59.59
2023-04-25T17:29:52.288Z,57.88
2023-04-25T17:32:20.472Z,55.28
2023-04-25T17:34:50.055Z,55.09
2023-04-25T17:37:18.985Z,55.10
2023-04-25T17:39:47.453Z,54.79
2023-04-25T17:42:15.982Z,56.80
2023-04-25T17:44:44.444Z,58.30
2023-04-25T17:47:13.136Z,60.27
2023-04-25T17:49:41.292Z,71.82
2023-04-25T17:52:11.072Z,80.50
2023-04-25T17:54:39.544Z,85.30
2023-04-25T17:57:08.103Z,92.28
2023-04-25T17:59:36.604Z,94.66
2023-04-25T18:02:05.040Z,97.57
2023-04-25T18:04:33.439Z,97.70
2023-04-25T18:07:01.870Z,95.66
2023-04-25T18:09:32.606Z,94.88
2023-04-25T18:12:01.516Z,91.37
2023-04-25T18:14:29.550Z,90.43
2023-04-25T18:16:58.303Z,90.51
2023-04-25T18:22:05.546Z,93.94
2023-04-25T18:24:35.553Z,95.60
2023-04-25T18:27:07.120Z,98.16
2023-04-25T18:29:35.243Z,97.14
2023-04-25T18:32:05.249Z,95.96
2023-04-25T18:34:34.094Z,98.51
2023-04-25T18:37:02.560Z,96.92
2023-04-25T18:39:30.970Z,96.31
2023-04-25T18:42:04.672Z,97.63
2023-04-25T18:44:39.648Z,99.41
2023-04-25T18:47:07.929Z,100.00
2023-04-25T18:49:35.975Z,97.70
2023-04-25T18:52:04.527Z,98.39
2023-04-25T18:54:33.117Z,97.23
2023-04-25T18:57:05.182Z,97.85
2023-04-25T18:59:33.534Z,99.73
2023-04-25T19:02:02.181Z,100.00
2023-04-25T19:04:30.696Z,100.00
2023-04-25T19:06:59.018Z,100.00
2023-04-25T19:09:27.578Z,100.00
2023-04-25T19:11:55.959Z,100.00
2023-04-25T19:14:26.167Z,100.00
2023-04-25T19:16:54.372Z,100.00
2023-04-25T19:19:22.647Z,100.00
2023-04-25T19:21:52.612Z,100.00
2023-04-25T19:24:21.024Z,100.00
2023-04-25T19:26:49.158Z,100.00
2023-04-25T19:29:17.676Z,100.00
2023-04-25T19:31:47.159Z,100.00
2023-04-25T19:34:15.609Z,100.00
2023-04-25T19:36:44.394Z,100.00
2023-04-25T19:39:13.253Z,100.00
2023-04-25T19:41:41.803Z,100.00
2023-04-25T19:44:10.872Z,100.00
2023-04-25T19:46:39.708Z,100.00
2023-04-25T19:49:09.905Z,100.00
2023-04-25T19:51:38.128Z,100.00
2023-04-25T19:54:06.713Z,100.00
2023-04-25T19:56:35.224Z,100.00
2023-04-25T19:59:03.338Z,100.00
2023-04-25T20:01:31.831Z,100.00
2023-04-25T20:04:00.033Z,100.00
2023-04-25T20:06:29.863Z,100.00
2023-04-25T20:08:57.958Z,100.00
2023-04-25T20:11:28.720Z,100.00
2023-04-25T20:13:57.554Z,100.00
2023-04-25T20:16:27.800Z,100.00
2023-04-25T20:18:56.586Z,100.00
2023-04-25T20:21:25.365Z,100.00
2023-04-25T20:23:55.000Z,100.00
2023-04-25T20:26:23.241Z,100.00
2023-04-25T20:28:52.300Z,100.00
2023-04-25T20:31:21.477Z,100.00
2023-04-25T20:33:49.972Z,100.00
2023-04-25T20:36:19.696Z,100.00
2023-04-25T20:38:48.172Z,100.00
2023-04-25T20:41:18.396Z,100.00
2023-04-25T20:43:47.338Z,100.00
2023-04-25T20:46:16.250Z,100.00
2023-04-25T20:48:44.752Z,100.00
2023-04-25T20:51:13.041Z,100.00
2023-04-25T20:53:41.130Z,100.00
2023-04-25T20:56:11.161Z,100.00
2023-04-25T20:58:41.480Z,100.00
2023-04-25T21:01:10.425Z,100.00
2023-04-25T21:03:39.000Z,100.00
2023-04-25T21:06:07.707Z,100.00
2023-04-25T21:08:35.941Z,100.00
2023-04-25T21:11:05.306Z,100.00
2023-04-25T21:13:33.824Z,100.00
2023-04-25T21:16:03.802Z,100.00
2023-04-25T21:18:32.178Z,100.00
2023-04-25T21:21:01.346Z,100.00
2023-04-25T21:23:29.466Z,100.00
2023-04-25T21:25:57.754Z,100.00
2023-04-25T21:28:26.289Z,100.00
2023-04-25T21:30:54.732Z,100.00
2023-04-25T21:33:24.702Z,100.00
2023-04-25T21:35:53.182Z,100.00
2023-04-25T21:38:22.338Z,100.00
2023-04-25T21:40:51.066Z,100.00
2023-04-25T21:43:19.310Z,100.00
2023-04-25T21:46:11.478Z,100.00
2023-04-25T21:48:37.322Z,100.00
2023-04-25T21:51:05.912Z,100.00
2023-04-25T21:53:34.528Z,100.00
2023-04-25T21:56:02.990Z,100.00
2023-04-25T21:58:31.182Z,100.00
2023-04-25T22:01:00.204Z,100.00
2023-04-25T22:03:28.643Z,100.00
2023-04-25T22:05:59.102Z,100.00
2023-04-25T22:08:27.478Z,100.00
2023-04-25T22:10:56.537Z,100.00
2023-04-25T22:13:27.038Z,100.00
2023-04-25T22:15:55.222Z,100.00
2023-04-25T22:18:23.900Z,100.00
2023-04-25T22:20:52.197Z,100.00
2023-04-25T22:23:22.894Z,100.00
2023-04-25T22:25:51.090Z,100.00
2023-04-25T22:28:19.319Z,100.00
2023-04-25T22:30:47.494Z,100.00
2023-04-25T22:33:15.630Z,100.00
2023-04-25T22:35:44.000Z,100.00
2023-04-25T22:38:12.268Z,100.00
2023-04-25T22:40:41.946Z,100.00
2023-04-25T22:43:10.747Z,100.00
2023-04-25T22:45:38.932Z,100.00
2023-04-25T22:48:08.066Z,100.00
2023-04-25T22:50:36.946Z,100.00
2023-04-25T22:53:05.339Z,100.00
2023-04-25T22:55:33.392Z,100.00
2023-04-25T22:58:02.849Z,100.00
2023-04-25T23:00:31.315Z,100.00
2023-04-25T23:02:59.664Z,100.00
2023-04-25T23:05:28.344Z,100.00
2023-04-25T23:07:56.381Z,100.00
2023-04-25T23:10:27.158Z,100.00
2023-04-25T23:12:58.319Z,100.00
2023-04-25T23:15:31.108Z,100.00
2023-04-25T23:17:59.735Z,100.00
2023-04-25T23:20:27.956Z,100.00
2023-04-25T23:22:56.251Z,100.00
2023-04-25T23:25:24.598Z,100.00
2023-04-25T23:27:52.781Z,100.00
2023-04-25T23:30:21.414Z,100.00
2023-04-25T23:32:51.688Z,100.00
2023-04-25T23:35:20.246Z,100.00
2023-04-25T23:37:49.554Z,100.00
2023-04-25T23:40:17.588Z,100.00
2023-04-25T23:42:45.726Z,100.00
2023-04-25T23:45:15.971Z,100.00
2023-04-25T23:47:44.599Z,100.00
2023-04-25T23:50:15.011Z,100.00
2023-04-25T23:52:43.001Z,100.00
2023-04-25T23:55:11.300Z,100.00
2023-04-25T23:57:39.315Z,100.00
